首页
METAR-TAF:

METAR-TAF

机场 :

利馬, 秘鲁

豪尔赫·查韦斯国际机场

纬度: 12-00S, 经度: 077-07W, 海拔: 12米

当前天气观测

该预报发布于15分钟前的13:00 UTC
风速4节,风向
温度 20°C
湿度 94%
气压 1014 hPa
能见度10公里或以上
多云层高于13000英尺

METAR: SPJC 171300Z 19004KT 9999 BKN130 20/19 Q1014 NOSIG RMK PP000

时间: 08:15 (13:15 UTC)

预报

该预报发布于2小时和15分钟前的11:00 UTC
预报有效从17日的 12点(UTC)到 18日的 12点(UTC)
风速10节,风向
能见度10公里或以上
散云层高于7000英尺
多云层高于12000英尺
成为
从 17日的 14点(UTC)到 17日的 16点(UTC)
风速5节,风向西转西南
散云层高于15000英尺
成为
从 17日的 19点(UTC)到 17日的 21点(UTC)
风速12节,风向
从 18日的 0600点(UTC)
风速5节,风向南转南东
能見度: 8000
散云层高于1000英尺

TAF: SPJC 171100Z 1712/1812 17010KT 9999 SCT070 BKN120 TX27/1720Z TN20/1811Z BECMG 1714/1716 25005KT SCT150 BECMG 1719/1721 18012KT FM180600 16005KT 8000 SCT010

超过4000个机场的气象观测和天气预报(METAR&TAF报告)。

可查询的气象台以黄色和红色小点在地图上表示。

将鼠标移到小点上方,可查看气象台名称。

然后点击查看天气观测和预报。

如需切换地图:点击带黑十字的绿色按钮放大地图;点击带横线的绿色按钮缩小地图;或者点击绿色箭头查看邻近地区的地图。


METAR-TAF: